Time;durP1;ratioP1;P1;durP2;ratioP2;P2;SDS_P1;SDS_P2;PMS_P1;PMS_P2;Temp;Humidity;BMP_temperature;BMP_pressure;BME280_temperature;BME280_humidity;BME280_pressure;Samples;Min_cycle;Max_cycle;Signal;HPM_P1;HPM_P2
2023/08/06 00:02:25;;;;;;;6.18;4.03;;;;;;;;;;5038708;28;20049;-79
2023/08/06 00:04:52;;;;;;;7.72;4.25;;;;;;;;;;5039699;28;20049;-79
2023/08/06 00:07:19;;;;;;;6.07;3.90;;;;;;;;;;5039905;28;20080;-79
2023/08/06 00:09:47;;;;;;;6.55;3.80;;;;;;;;;;5040164;28;20049;-80
2023/08/06 00:12:13;;;;;;;6.03;3.65;;;;;;;;;;5040118;28;20072;-80
2023/08/06 00:14:40;;;;;;;6.05;3.53;;;;;;;;;;5039813;28;20041;-79
2023/08/06 00:17:06;;;;;;;5.35;3.85;;;;;;;;;;5040378;28;20056;-79
2023/08/06 00:19:33;;;;;;;5.75;4.32;;;;;;;;;;5039410;28;20053;-79
2023/08/06 00:22:01;;;;;;;5.15;3.40;;;;;;;;;;5039547;28;20049;-79
2023/08/06 00:24:28;;;;;;;6.72;4.20;;;;;;;;;;5039564;28;20128;-79
2023/08/06 00:26:56;;;;;;;5.70;4.40;;;;;;;;;;5040183;28;20084;-79
2023/08/06 00:29:23;;;;;;;6.30;3.63;;;;;;;;;;5040358;28;20049;-80
2023/08/06 00:31:49;;;;;;;6.30;3.78;;;;;;;;;;5040716;28;20147;-78
2023/08/06 00:34:16;;;;;;;8.02;4.53;;;;;;;;;;5039169;28;20128;-79
2023/08/06 00:36:42;;;;;;;6.35;4.07;;;;;;;;;;5040707;28;20077;-80
2023/08/06 00:39:09;;;;;;;7.07;3.78;;;;;;;;;;5043520;28;20110;-80
2023/08/06 00:41:39;;;;;;;4.78;2.90;;;;;;;;;;5042287;28;20046;-79
2023/08/06 00:44:07;;;;;;;4.93;2.87;;;;;;;;;;5039504;28;20052;-78
2023/08/06 00:46:34;;;;;;;4.70;2.78;;;;;;;;;;5039317;28;20076;-78
2023/08/06 00:49:01;;;;;;;4.28;2.80;;;;;;;;;;5039291;28;20046;-80
2023/08/06 00:51:28;;;;;;;5.35;2.75;;;;;;;;;;5038567;28;20053;-79
2023/08/06 00:53:55;;;;;;;4.80;2.75;;;;;;;;;;5038334;28;20128;-79
2023/08/06 00:56:22;;;;;;;5.25;2.85;;;;;;;;;;5039141;28;20571;-79
2023/08/06 00:58:49;;;;;;;4.13;2.63;;;;;;;;;;5039023;28;20046;-80
2023/08/06 01:01:17;;;;;;;4.82;3.22;;;;;;;;;;5038805;28;20504;-80
2023/08/06 01:03:44;;;;;;;4.93;2.90;;;;;;;;;;5053815;22;20073;-77
2023/08/06 01:06:10;;;;;;;5.15;3.22;;;;;;;;;;5037333;28;20045;-77
2023/08/06 01:08:48;;;;;;;5.00;3.08;;;;;;;;;;5035763;28;20041;-77
2023/08/06 01:11:27;;;;;;;4.82;3.00;;;;;;;;;;5034384;28;20056;-77
2023/08/06 01:14:00;;;;;;;5.10;3.08;;;;;;;;;;5033926;28;20049;-77
2023/08/06 01:16:29;;;;;;;4.60;2.85;;;;;;;;;;5034020;28;20056;-77
2023/08/06 01:18:55;;;;;;;4.95;3.10;;;;;;;;;;5033892;28;20053;-77
2023/08/06 01:21:23;;;;;;;4.60;3.35;;;;;;;;;;5033635;28;20393;-77
2023/08/06 01:23:50;;;;;;;5.07;3.05;;;;;;;;;;5033830;28;20046;-77
2023/08/06 01:26:24;;;;;;;4.93;2.78;;;;;;;;;;5033879;28;20052;-77
2023/08/06 01:29:00;;;;;;;4.68;3.00;;;;;;;;;;5033769;28;20096;-77
2023/08/06 01:31:31;;;;;;;5.45;3.58;;;;;;;;;;5033653;28;20100;-77
2023/08/06 01:34:00;;;;;;;5.68;3.10;;;;;;;;;;5033475;28;20049;-77
2023/08/06 01:36:29;;;;;;;4.75;3.17;;;;;;;;;;5033947;28;20049;-77
2023/08/06 01:38:57;;;;;;;5.13;3.60;;;;;;;;;;5033634;28;20041;-77
2023/08/06 01:41:24;;;;;;;5.93;3.53;;;;;;;;;;5033420;28;20069;-77
2023/08/06 01:43:50;;;;;;;5.75;3.28;;;;;;;;;;5033455;28;20045;-77
2023/08/06 01:46:17;;;;;;;5.13;3.20;;;;;;;;;;5033570;28;20053;-78
2023/08/06 01:48:44;;;;;;;5.95;3.60;;;;;;;;;;5033493;28;20049;-77
2023/08/06 01:51:10;;;;;;;5.18;3.33;;;;;;;;;;5033317;28;20065;-77
2023/08/06 01:53:38;;;;;;;5.82;3.70;;;;;;;;;;5033198;28;20056;-77
2023/08/06 01:56:05;;;;;;;5.53;3.15;;;;;;;;;;5033572;28;20053;-77
2023/08/06 01:58:31;;;;;;;6.50;3.55;;;;;;;;;;5033511;28;20123;-77
2023/08/06 02:00:58;;;;;;;5.28;3.40;;;;;;;;;;5032891;28;20049;-77
2023/08/06 02:03:24;;;;;;;5.35;3.45;;;;;;;;;;5032767;28;20052;-77
2023/08/06 02:05:51;;;;;;;5.05;3.33;;;;;;;;;;5033124;28;20491;-77
2023/08/06 02:08:17;;;;;;;6.00;3.70;;;;;;;;;;5033027;28;20056;-77
2023/08/06 02:10:45;;;;;;;5.65;3.53;;;;;;;;;;5032999;28;20053;-77
2023/08/06 02:13:12;;;;;;;5.25;3.08;;;;;;;;;;5033208;28;20424;-77
2023/08/06 02:15:43;;;;;;;6.57;3.35;;;;;;;;;;5032397;28;20045;-77
2023/08/06 02:18:09;;;;;;;5.40;3.25;;;;;;;;;;5033033;28;20068;-77
2023/08/06 02:20:36;;;;;;;5.82;3.65;;;;;;;;;;5032741;28;20056;-77
2023/08/06 02:23:03;;;;;;;5.63;3.33;;;;;;;;;;5032532;28;20150;-77
2023/08/06 02:25:29;;;;;;;4.35;2.60;;;;;;;;;;5032519;28;20514;-77
2023/08/06 02:27:57;;;;;;;5.47;3.30;;;;;;;;;;5032347;28;20072;-77
2023/08/06 02:30:24;;;;;;;5.18;3.08;;;;;;;;;;5032547;28;20149;-77
2023/08/06 02:32:50;;;;;;;6.63;3.42;;;;;;;;;;5032338;28;20128;-77
2023/08/06 02:35:17;;;;;;;4.93;3.00;;;;;;;;;;5032383;28;20053;-77
2023/08/06 02:37:43;;;;;;;4.60;2.75;;;;;;;;;;5032448;28;20053;-77
2023/08/06 02:40:11;;;;;;;4.78;3.20;;;;;;;;;;5032222;28;20057;-77
2023/08/06 02:42:37;;;;;;;5.72;3.20;;;;;;;;;;5031863;28;20049;-76
2023/08/06 02:45:06;;;;;;;4.32;2.80;;;;;;;;;;5032272;28;20569;-77
2023/08/06 02:47:33;;;;;;;5.18;2.88;;;;;;;;;;5032413;28;20053;-77
2023/08/06 02:49:59;;;;;;;4.30;2.92;;;;;;;;;;5031980;28;20053;-77
2023/08/06 02:52:26;;;;;;;4.25;2.53;;;;;;;;;;5032111;28;20059;-77
2023/08/06 02:54:52;;;;;;;4.07;2.60;;;;;;;;;;5032065;28;20045;-76
2023/08/06 02:57:19;;;;;;;5.22;3.15;;;;;;;;;;5032021;28;20049;-77
2023/08/06 02:59:45;;;;;;;4.68;2.92;;;;;;;;;;5032181;28;20081;-77
2023/08/06 03:02:13;;;;;;;4.38;3.03;;;;;;;;;;5031832;28;20116;-77
2023/08/06 03:04:40;;;;;;;4.72;2.70;;;;;;;;;;5032287;28;20507;-77
2023/08/06 03:07:06;;;;;;;4.90;2.80;;;;;;;;;;5032524;28;20049;-77
2023/08/06 03:09:33;;;;;;;4.13;2.28;;;;;;;;;;5032443;28;20052;-77
2023/08/06 03:11:59;;;;;;;4.50;2.60;;;;;;;;;;5032436;28;20053;-77
2023/08/06 03:14:26;;;;;;;4.22;2.50;;;;;;;;;;5032246;28;20110;-77
2023/08/06 03:16:53;;;;;;;5.47;2.95;;;;;;;;;;5032102;28;20315;-77
2023/08/06 03:19:20;;;;;;;4.90;2.70;;;;;;;;;;5031729;28;20052;-77
2023/08/06 03:21:47;;;;;;;4.43;2.83;;;;;;;;;;5031550;28;20041;-77
2023/08/06 03:24:14;;;;;;;5.07;2.83;;;;;;;;;;5031440;28;20128;-77
2023/08/06 03:26:41;;;;;;;5.63;2.90;;;;;;;;;;5031883;28;20049;-77
2023/08/06 03:29:07;;;;;;;4.43;2.42;;;;;;;;;;5030716;28;20576;-76
2023/08/06 03:31:34;;;;;;;4.53;2.53;;;;;;;;;;5031628;28;20049;-77
2023/08/06 03:34:00;;;;;;;3.47;2.17;;;;;;;;;;5032498;28;20049;-77
2023/08/06 03:36:28;;;;;;;4.10;2.35;;;;;;;;;;5033070;28;20053;-77
2023/08/06 03:38:55;;;;;;;3.38;2.10;;;;;;;;;;5031412;28;20046;-77
2023/08/06 03:41:21;;;;;;;4.70;2.60;;;;;;;;;;5031542;28;20045;-77
2023/08/06 03:43:48;;;;;;;3.72;2.30;;;;;;;;;;5031234;28;20045;-77
2023/08/06 03:46:14;;;;;;;4.13;2.15;;;;;;;;;;5031243;28;20500;-77
2023/08/06 03:48:41;;;;;;;4.80;2.45;;;;;;;;;;5031370;28;20563;-77
2023/08/06 03:51:07;;;;;;;4.97;2.05;;;;;;;;;;5031274;28;20046;-77
2023/08/06 03:53:35;;;;;;;4.07;2.30;;;;;;;;;;5031260;28;20045;-77
2023/08/06 03:56:02;;;;;;;5.03;2.38;;;;;;;;;;5031664;28;20071;-77
2023/08/06 03:58:28;;;;;;;3.92;2.22;;;;;;;;;;5031498;28;20048;-77
2023/08/06 04:01:01;;;;;;;4.18;2.42;;;;;;;;;;5031201;28;20071;-77
2023/08/06 04:03:27;;;;;;;4.20;2.30;;;;;;;;;;5031049;28;20129;-77
2023/08/06 04:05:55;;;;;;;4.25;2.53;;;;;;;;;;5031098;28;20065;-77
2023/08/06 04:08:21;;;;;;;4.05;2.20;;;;;;;;;;5031263;28;20484;-77
2023/08/06 04:10:52;;;;;;;3.75;2.10;;;;;;;;;;5030927;28;20132;-77
2023/08/06 04:13:20;;;;;;;3.38;2.17;;;;;;;;;;5031164;28;20488;-77
2023/08/06 04:15:47;;;;;;;4.13;2.20;;;;;;;;;;5031084;28;20050;-77
2023/08/06 04:18:13;;;;;;;4.78;2.10;;;;;;;;;;5031118;28;20072;-77
2023/08/06 04:20:44;;;;;;;3.83;1.98;;;;;;;;;;5031252;28;20057;-77
2023/08/06 04:23:10;;;;;;;;;;;;;;;;;;5031904;28;20042;-76
2023/08/06 04:25:37;;;;;;;3.60;2.17;;;;;;;;;;5032015;28;19928;-76
2023/08/06 04:28:05;;;;;;;3.33;2.03;;;;;;;;;;5031675;28;20060;-77
2023/08/06 04:30:31;;;;;;;4.40;2.60;;;;;;;;;;5031249;28;20096;-77
2023/08/06 04:32:58;;;;;;;5.05;2.35;;;;;;;;;;5030915;28;20056;-77
2023/08/06 04:35:25;;;;;;;3.90;2.10;;;;;;;;;;5031302;28;20041;-77
2023/08/06 04:37:52;;;;;;;4.40;2.10;;;;;;;;;;5032032;28;20057;-77
2023/08/06 04:40:18;;;;;;;6.03;1.90;;;;;;;;;;5034428;28;20050;-77
2023/08/06 04:42:45;;;;;;;3.15;1.67;;;;;;;;;;5036217;28;20515;-77
2023/08/06 04:45:13;;;;;;;5.05;2.63;;;;;;;;;;5039498;28;20045;-76
2023/08/06 04:47:39;;;;;;;3.72;2.20;;;;;;;;;;5044827;28;20073;-78
2023/08/06 04:50:07;;;;;;;5.25;2.00;;;;;;;;;;5034753;28;20049;-76
2023/08/06 04:52:33;;;;;;;3.90;2.20;;;;;;;;;;5034065;28;20496;-76
2023/08/06 04:55:00;;;;;;;3.92;2.00;;;;;;;;;;5034896;28;20109;-76
2023/08/06 04:57:26;;;;;;;2.63;1.50;;;;;;;;;;5034646;28;20132;-76
2023/08/06 04:59:53;;;;;;;3.20;1.90;;;;;;;;;;5034538;28;20136;-76
2023/08/06 05:02:21;;;;;;;3.83;1.90;;;;;;;;;;5034033;28;20041;-77
2023/08/06 05:04:47;;;;;;;5.35;1.85;;;;;;;;;;5034596;28;20041;-77
2023/08/06 05:07:14;;;;;;;4.28;2.58;;;;;;;;;;5034737;28;20434;-77
2023/08/06 05:09:40;;;;;;;2.85;1.70;;;;;;;;;;5048908;28;20057;-77
2023/08/06 05:12:07;;;;;;;3.92;1.90;;;;;;;;;;5045880;28;20443;-76
2023/08/06 05:14:37;;;;;;;3.65;1.60;;;;;;;;;;5034873;28;20128;-77
2023/08/06 05:17:04;;;;;;;4.95;2.22;;;;;;;;;;5034520;28;20420;-77
2023/08/06 05:19:32;;;;;;;3.53;1.98;;;;;;;;;;5035242;28;20088;-76
2023/08/06 05:21:59;;;;;;;3.30;1.90;;;;;;;;;;5034526;28;20575;-77
2023/08/06 05:24:25;;;;;;;4.63;2.10;;;;;;;;;;5034404;28;20147;-76
2023/08/06 05:26:52;;;;;;;5.55;1.95;;;;;;;;;;5035495;28;20054;-77
2023/08/06 05:29:19;;;;;;;3.70;2.13;;;;;;;;;;5035547;28;20073;-77
2023/08/06 05:31:45;;;;;;;3.13;1.73;;;;;;;;;;5037330;28;20530;-77
2023/08/06 05:34:12;;;;;;;3.45;1.90;;;;;;;;;;5035221;28;20128;-76
2023/08/06 05:36:40;;;;;;;3.63;2.10;;;;;;;;;;5034229;28;20052;-76
2023/08/06 05:39:06;;;;;;;4.38;2.53;;;;;;;;;;5034021;28;20042;-76
2023/08/06 05:41:33;;;;;;;3.80;2.00;;;;;;;;;;5033869;28;20390;-77
2023/08/06 05:43:59;;;;;;;3.13;1.73;;;;;;;;;;5034071;28;20052;-77
2023/08/06 05:46:26;;;;;;;2.90;1.73;;;;;;;;;;5035735;28;20057;-76
2023/08/06 05:48:52;;;;;;;3.08;1.73;;;;;;;;;;5035715;28;20049;-76
2023/08/06 05:51:19;;;;;;;4.95;2.47;;;;;;;;;;5032789;28;20050;-76
2023/08/06 05:53:49;;;;;;;3.05;1.75;;;;;;;;;;5034064;28;20136;-77
2023/08/06 05:56:15;;;;;;;2.95;1.80;;;;;;;;;;5033582;28;20053;-77
2023/08/06 05:58:42;;;;;;;4.53;1.98;;;;;;;;;;5033713;28;20053;-77
2023/08/06 06:01:08;;;;;;;4.97;1.80;;;;;;;;;;5033488;28;20050;-77
2023/08/06 06:03:35;;;;;;;4.88;1.88;;;;;;;;;;5033242;28;20050;-77
2023/08/06 06:06:02;;;;;;;2.97;1.88;;;;;;;;;;5033168;28;20412;-77
2023/08/06 06:08:28;;;;;;;3.30;1.70;;;;;;;;;;5033455;28;20136;-76
2023/08/06 06:10:56;;;;;;;3.13;1.55;;;;;;;;;;5033597;28;20050;-78
2023/08/06 06:13:23;;;;;;;4.45;2.05;;;;;;;;;;5034450;28;20049;-77
2023/08/06 06:15:49;;;;;;;3.17;1.70;;;;;;;;;;5034895;28;20145;-77
2023/08/06 06:18:16;;;;;;;3.63;1.92;;;;;;;;;;5035242;28;20113;-76
2023/08/06 06:20:43;;;;;;;3.30;1.70;;;;;;;;;;5033380;28;20056;-76
2023/08/06 06:23:09;;;;;;;3.08;1.55;;;;;;;;;;5033820;28;20053;-76
2023/08/06 06:25:36;;;;;;;2.20;1.42;;;;;;;;;;5033786;28;20049;-77
2023/08/06 06:28:04;;;;;;;3.60;1.67;;;;;;;;;;5034935;28;20131;-77
2023/08/06 06:30:30;;;;;;;2.63;1.60;;;;;;;;;;5034961;28;20053;-77
2023/08/06 06:32:57;;;;;;;2.85;1.60;;;;;;;;;;5033477;28;20057;-77
2023/08/06 06:35:26;;;;;;;3.55;1.45;;;;;;;;;;5033995;28;20051;-77
2023/08/06 06:37:54;;;;;;;2.90;1.35;;;;;;;;;;5033745;28;20136;-76
2023/08/06 06:40:20;;;;;;;2.65;1.40;;;;;;;;;;5033541;28;20111;-76
2023/08/06 06:42:47;;;;;;;2.83;1.42;;;;;;;;;;5033404;28;20057;-77
2023/08/06 06:45:14;;;;;;;3.28;1.55;;;;;;;;;;5034639;28;20415;-77
2023/08/06 06:47:41;;;;;;;4.07;1.63;;;;;;;;;;5033940;28;20052;-77
2023/08/06 06:50:08;;;;;;;3.60;1.60;;;;;;;;;;5033007;28;20095;-77
2023/08/06 06:52:35;;;;;;;3.63;1.45;;;;;;;;;;5032646;28;20104;-77
2023/08/06 06:55:02;;;;;;;3.67;1.42;;;;;;;;;;5033010;28;20051;-77
2023/08/06 06:57:28;;;;;;;2.85;1.33;;;;;;;;;;5033223;28;20285;-77
2023/08/06 06:59:55;;;;;;;3.10;1.50;;;;;;;;;;5033311;28;20052;-77
2023/08/06 07:02:23;;;;;;;4.38;1.52;;;;;;;;;;5032680;28;20049;-77
2023/08/06 07:04:51;;;;;;;4.60;1.88;;;;;;;;;;5034879;28;20068;-77
2023/08/06 07:07:17;;;;;;;2.80;1.48;;;;;;;;;;5034461;28;20072;-77
2023/08/06 07:09:44;;;;;;;2.85;1.40;;;;;;;;;;5034557;28;20105;-77
2023/08/06 07:12:10;;;;;;;3.33;1.30;;;;;;;;;;5035564;28;20084;-77
2023/08/06 07:14:37;;;;;;;2.05;1.10;;;;;;;;;;5032229;28;20068;-77
2023/08/06 07:17:04;;;;;;;1.77;0.90;;;;;;;;;;5013530;28;20050;-77
2023/08/06 07:19:32;;;;;;;2.85;1.00;;;;;;;;;;5014326;28;20054;-77
2023/08/06 07:21:58;;;;;;;2.00;0.82;;;;;;;;;;5015077;28;20081;-77
2023/08/06 07:24:25;;;;;;;2.00;0.80;;;;;;;;;;5015139;28;20133;-77
2023/08/06 07:26:52;;;;;;;2.05;0.63;;;;;;;;;;5019220;28;20056;-76
2023/08/06 07:29:21;;;;;;;1.85;0.73;;;;;;;;;;5015740;28;20496;-77
2023/08/06 07:31:49;;;;;;;1.45;0.65;;;;;;;;;;5017182;28;20088;-77
2023/08/06 07:34:17;;;;;;;1.92;0.50;;;;;;;;;;5014489;28;20100;-77
2023/08/06 07:36:46;;;;;;;1.20;0.70;;;;;;;;;;5015561;28;20056;-78
2023/08/06 07:39:13;;;;;;;2.00;0.82;;;;;;;;;;5017483;28;20125;-78
2023/08/06 07:41:41;;;;;;;1.88;0.80;;;;;;;;;;5014636;28;20137;-76
2023/08/06 07:44:10;;;;;;;2.50;0.88;;;;;;;;;;5013553;28;20574;-78
2023/08/06 07:46:36;;;;;;;2.58;0.93;;;;;;;;;;5014190;28;20054;-77
2023/08/06 07:49:03;;;;;;;2.38;1.00;;;;;;;;;;5014827;28;20086;-76
2023/08/06 07:51:29;;;;;;;2.05;0.82;;;;;;;;;;5014875;28;20150;-76
2023/08/06 07:54:00;;;;;;;2.35;1.13;;;;;;;;;;5029061;28;20092;-75
2023/08/06 07:56:27;;;;;;;2.08;0.73;;;;;;;;;;5030486;28;20077;-76
2023/08/06 07:58:53;;;;;;;2.45;1.00;;;;;;;;;;5031530;28;20064;-76
2023/08/06 08:01:20;;;;;;;1.75;0.80;;;;;;;;;;5031603;28;20037;-76
2023/08/06 08:03:46;;;;;;;2.45;0.90;;;;;;;;;;5031098;28;20046;-76
2023/08/06 08:06:13;;;;;;;1.73;0.85;;;;;;;;;;5020230;28;20460;-77
2023/08/06 08:08:39;;;;;;;2.58;0.80;;;;;;;;;;5014450;28;20052;-77
2023/08/06 08:11:08;;;;;;;3.08;0.85;;;;;;;;;;5012795;28;20137;-77
2023/08/06 08:13:35;;;;;;;2.90;0.98;;;;;;;;;;5012532;28;20046;-77
2023/08/06 08:16:01;;;;;;;1.20;0.70;;;;;;;;;;5017822;28;20107;-77
2023/08/06 08:18:29;;;;;;;2.55;0.95;;;;;;;;;;5018051;28;20046;-77
2023/08/06 08:20:56;;;;;;;3.28;0.88;;;;;;;;;;5017818;28;20050;-77
2023/08/06 08:23:22;;;;;;;2.20;0.75;;;;;;;;;;5017035;28;20415;-76
2023/08/06 08:25:49;;;;;;;1.50;0.70;;;;;;;;;;5016638;28;20042;-77
2023/08/06 08:28:17;;;;;;;2.60;0.93;;;;;;;;;;5016451;28;20420;-76
2023/08/06 08:30:43;;;;;;;2.35;0.80;;;;;;;;;;5017326;28;20041;-77
2023/08/06 08:33:10;;;;;;;0.95;0.60;;;;;;;;;;5017027;28;20041;-78
2023/08/06 08:35:37;;;;;;;1.33;0.60;;;;;;;;;;5020959;28;20050;-77
2023/08/06 08:38:04;;;;;;;1.45;0.77;;;;;;;;;;5017279;28;20512;-77
2023/08/06 08:40:32;;;;;;;1.17;0.50;;;;;;;;;;5016268;28;20043;-77
2023/08/06 08:43:00;;;;;;;2.38;0.65;;;;;;;;;;5015540;28;20504;-77
2023/08/06 08:45:30;;;;;;;1.42;0.70;;;;;;;;;;5015741;28;20053;-77
2023/08/06 08:48:06;;;;;;;1.10;0.60;;;;;;;;;;5015596;28;20053;-77
2023/08/06 08:50:33;;;;;;;2.60;0.85;;;;;;;;;;5015759;28;20060;-77
2023/08/06 08:53:00;;;;;;;1.35;0.65;;;;;;;;;;5016384;28;20133;-77
2023/08/06 08:55:27;;;;;;;1.55;0.68;;;;;;;;;;5015530;28;20042;-76
2023/08/06 08:57:53;;;;;;;1.13;0.52;;;;;;;;;;5015546;28;20132;-77
2023/08/06 09:00:20;;;;;;;1.60;0.60;;;;;;;;;;5015639;28;20394;-77
2023/08/06 09:02:48;;;;;;;1.33;0.40;;;;;;;;;;5016009;28;20088;-78
2023/08/06 09:05:16;;;;;;;1.75;0.60;;;;;;;;;;5018870;28;20053;-78
2023/08/06 09:07:44;;;;;;;1.65;0.50;;;;;;;;;;5016247;28;20062;-78
2023/08/06 09:10:13;;;;;;;1.30;0.50;;;;;;;;;;5020199;28;20054;-78
2023/08/06 09:12:43;;;;;;;1.55;0.57;;;;;;;;;;5015634;28;20042;-77
2023/08/06 09:15:09;;;;;;;1.37;0.50;;;;;;;;;;5015056;28;20121;-77
2023/08/06 09:17:37;;;;;;;1.50;0.50;;;;;;;;;;5014573;28;20045;-78
2023/08/06 09:20:13;;;;;;;0.68;0.30;;;;;;;;;;5014922;28;20052;-77
2023/08/06 09:22:44;;;;;;;0.63;0.40;;;;;;;;;;5013842;28;20049;-77
2023/08/06 09:25:11;;;;;;;1.27;0.50;;;;;;;;;;5013920;28;20046;-77
2023/08/06 09:27:38;;;;;;;0.65;0.38;;;;;;;;;;5013180;28;20050;-77
2023/08/06 09:30:06;;;;;;;0.93;0.40;;;;;;;;;;5014177;28;20129;-77
2023/08/06 09:32:47;;;;;;;1.90;0.35;;;;;;;;;;5013392;28;20046;-77
2023/08/06 09:35:18;;;;;;;0.95;0.30;;;;;;;;;;5014304;28;20046;-78
2023/08/06 09:37:44;;;;;;;;;;;;;;;;;;5016017;28;20057;-77
2023/08/06 09:40:25;;;;;;;0.45;0.30;;;;;;;;;;5013613;28;19929;-76
2023/08/06 09:42:52;;;;;;;0.68;0.30;;;;;;;;;;5013835;28;20523;-77
2023/08/06 09:45:18;;;;;;;0.40;0.30;;;;;;;;;;5014108;28;20056;-77
2023/08/06 09:47:47;;;;;;;0.52;0.30;;;;;;;;;;5013956;28;20045;-77
2023/08/06 09:50:18;;;;;;;0.77;0.43;;;;;;;;;;5013828;28;20041;-77
2023/08/06 09:52:45;;;;;;;1.02;0.38;;;;;;;;;;5012929;28;20559;-77
2023/08/06 09:55:13;;;;;;;1.48;0.40;;;;;;;;;;5014237;28;20137;-77
2023/08/06 09:57:40;;;;;;;2.05;0.30;;;;;;;;;;5015818;28;20100;-79
2023/08/06 10:00:09;;;;;;;1.23;0.35;;;;;;;;;;5020879;28;20085;-77
2023/08/06 10:02:36;;;;;;;1.25;0.32;;;;;;;;;;4982044;28;1083734;-78
2023/08/06 10:05:03;;;;;;;0.95;0.32;;;;;;;;;;5018674;28;20424;-76
2023/08/06 10:07:32;;;;;;;1.48;0.38;;;;;;;;;;5015804;28;20496;-78
2023/08/06 10:09:59;;;;;;;0.57;0.28;;;;;;;;;;5016270;28;20046;-77
2023/08/06 10:12:31;;;;;;;1.02;0.40;;;;;;;;;;5016111;28;20055;-78
2023/08/06 10:15:02;;;;;;;1.00;0.30;;;;;;;;;;5016300;28;20053;-77
2023/08/06 10:17:29;;;;;;;0.30;0.22;;;;;;;;;;5013907;28;20455;-77
2023/08/06 10:19:56;;;;;;;1.30;0.40;;;;;;;;;;5014012;28;20056;-77
2023/08/06 10:22:24;;;;;;;0.43;0.30;;;;;;;;;;5014978;28;20141;-76
2023/08/06 10:24:56;;;;;;;0.63;0.28;;;;;;;;;;5014088;28;20046;-77
2023/08/06 10:27:29;;;;;;;0.73;0.28;;;;;;;;;;5013539;28;20072;-77
2023/08/06 10:29:55;;;;;;;0.40;0.20;;;;;;;;;;5013888;28;20052;-76
2023/08/06 10:32:22;;;;;;;1.08;0.40;;;;;;;;;;5013859;28;20436;-78
2023/08/06 10:34:58;;;;;;;0.75;0.30;;;;;;;;;;5015279;28;20049;-77
2023/08/06 10:37:25;;;;;;;1.85;0.40;;;;;;;;;;5016406;28;20052;-78
2023/08/06 10:39:52;;;;;;;1.20;0.43;;;;;;;;;;5014189;28;20046;-78
2023/08/06 10:42:28;;;;;;;0.95;0.47;;;;;;;;;;5014269;28;20046;-77
2023/08/06 10:45:15;;;;;;;1.80;0.50;;;;;;;;;;5013821;28;20508;-77
2023/08/06 10:47:42;;;;;;;0.55;0.30;;;;;;;;;;5014138;28;20050;-79
2023/08/06 10:50:11;;;;;;;0.80;0.30;;;;;;;;;;5015834;28;20050;-77
2023/08/06 10:52:38;;;;;;;0.43;0.30;;;;;;;;;;5015601;28;20053;-77
2023/08/06 10:55:05;;;;;;;0.52;0.30;;;;;;;;;;5028568;28;20050;-77
2023/08/06 10:57:33;;;;;;;0.68;0.40;;;;;;;;;;5020831;28;20054;-77
2023/08/06 11:00:00;;;;;;;0.68;0.30;;;;;;;;;;5016188;28;20042;-77
2023/08/06 11:02:26;;;;;;;0.77;0.30;;;;;;;;;;5016192;28;20060;-77
2023/08/06 11:04:53;;;;;;;0.73;0.30;;;;;;;;;;5015015;28;20050;-76
2023/08/06 11:07:20;;;;;;;0.30;0.20;;;;;;;;;;5014447;28;20501;-78
2023/08/06 11:09:52;;;;;;;0.30;0.20;;;;;;;;;;5014255;28;20053;-78
2023/08/06 11:12:20;;;;;;;0.52;0.30;;;;;;;;;;5014254;28;20104;-78
2023/08/06 11:14:51;;;;;;;1.33;0.30;;;;;;;;;;5014411;28;20504;-78
2023/08/06 11:17:18;;;;;;;0.73;0.20;;;;;;;;;;5016909;28;20056;-78
2023/08/06 11:19:45;;;;;;;0.38;0.20;;;;;;;;;;5015546;28;20046;-78
2023/08/06 11:22:12;;;;;;;0.45;0.20;;;;;;;;;;5015213;28;20049;-77
2023/08/06 11:24:39;;;;;;;0.30;0.20;;;;;;;;;;5014668;28;20050;-77
2023/08/06 11:27:12;;;;;;;0.73;0.25;;;;;;;;;;5016552;28;20046;-78
2023/08/06 11:29:39;;;;;;;0.85;0.20;;;;;;;;;;5016418;28;20050;-78
2023/08/06 11:32:07;;;;;;;0.65;0.20;;;;;;;;;;5015123;28;20070;-76
2023/08/06 11:34:34;;;;;;;0.85;0.20;;;;;;;;;;5013766;28;20058;-78
2023/08/06 11:37:01;;;;;;;0.20;0.20;;;;;;;;;;5015179;28;20137;-79
2023/08/06 11:39:28;;;;;;;0.20;0.15;;;;;;;;;;5015691;28;20046;-77
2023/08/06 11:41:54;;;;;;;0.15;0.13;;;;;;;;;;5016595;28;20053;-78
2023/08/06 11:44:24;;;;;;;1.25;0.40;;;;;;;;;;5014342;28;20052;-78
2023/08/06 11:46:53;;;;;;;0.25;0.17;;;;;;;;;;5014141;28;20394;-76
2023/08/06 11:49:21;;;;;;;0.20;0.20;;;;;;;;;;5016063;28;20045;-78
2023/08/06 11:51:48;;;;;;;0.65;0.20;;;;;;;;;;5019023;28;20133;-77
2023/08/06 11:54:15;;;;;;;1.35;0.20;;;;;;;;;;5025007;28;20045;-78
2023/08/06 11:56:41;;;;;;;0.22;0.22;;;;;;;;;;5021492;28;20522;-78
2023/08/06 11:59:10;;;;;;;0.47;0.28;;;;;;;;;;5018122;28;20046;-78
2023/08/06 12:01:36;;;;;;;0.35;0.17;;;;;;;;;;5017561;28;20125;-77
2023/08/06 12:04:06;;;;;;;0.57;0.47;;;;;;;;;;5016752;28;20120;-78
2023/08/06 12:06:42;;;;;;;0.57;0.20;;;;;;;;;;5017148;28;20049;-77
2023/08/06 12:09:10;;;;;;;0.30;0.30;;;;;;;;;;5015963;28;20126;-77
2023/08/06 12:11:36;;;;;;;0.73;0.30;;;;;;;;;;5016306;28;20042;-77
2023/08/06 12:14:03;;;;;;;0.38;0.20;;;;;;;;;;5015507;28;20141;-77
2023/08/06 12:16:29;;;;;;;0.70;0.30;;;;;;;;;;5016588;28;20088;-78
2023/08/06 12:18:56;;;;;;;0.60;0.30;;;;;;;;;;5017365;28;20049;-78
2023/08/06 12:21:22;;;;;;;0.30;0.22;;;;;;;;;;5017297;28;20045;-78
2023/08/06 12:23:50;;;;;;;0.60;0.30;;;;;;;;;;5017388;28;20052;-77
2023/08/06 12:26:17;;;;;;;0.40;0.20;;;;;;;;;;5017627;28;20056;-77
2023/08/06 12:28:43;;;;;;;0.30;0.30;;;;;;;;;;5015996;28;20137;-77
2023/08/06 12:31:10;;;;;;;0.75;0.30;;;;;;;;;;5016553;28;20046;-77
2023/08/06 12:33:39;;;;;;;0.45;0.30;;;;;;;;;;5017398;28;20129;-77
2023/08/06 12:36:06;;;;;;;0.20;0.20;;;;;;;;;;5017845;28;20056;-77
2023/08/06 12:38:33;;;;;;;0.30;0.30;;;;;;;;;;5018491;28;20068;-77
2023/08/06 12:41:01;;;;;;;0.90;0.22;;;;;;;;;;5017185;28;20050;-77
2023/08/06 12:43:28;;;;;;;0.70;0.40;;;;;;;;;;5016469;28;20133;-77
2023/08/06 12:45:54;;;;;;;0.38;0.30;;;;;;;;;;5018142;28;20053;-77
2023/08/06 12:48:21;;;;;;;0.95;0.85;;;;;;;;;;5017756;28;20046;-77
2023/08/06 12:50:49;;;;;;;1.88;0.73;;;;;;;;;;5017024;28;20049;-77
2023/08/06 12:53:15;;;;;;;0.50;0.30;;;;;;;;;;5016708;28;20576;-77
2023/08/06 12:55:43;;;;;;;0.55;0.40;;;;;;;;;;5015417;28;20413;-78
2023/08/06 12:58:10;;;;;;;1.15;0.35;;;;;;;;;;5017259;28;20588;-77
2023/08/06 13:00:37;;;;;;;0.40;0.40;;;;;;;;;;5016521;28;20067;-77
2023/08/06 13:03:04;;;;;;;0.30;0.30;;;;;;;;;;5037525;22;20136;-79
2023/08/06 13:05:30;;;;;;;0.55;0.40;;;;;;;;;;5042742;28;20088;-81
2023/08/06 13:07:57;;;;;;;1.73;0.30;;;;;;;;;;5044372;28;20045;-81
2023/08/06 13:10:24;;;;;;;0.20;0.20;;;;;;;;;;5044216;28;20054;-81
2023/08/06 13:12:50;;;;;;;0.70;0.30;;;;;;;;;;5043984;28;20065;-82
2023/08/06 13:15:20;;;;;;;0.30;0.30;;;;;;;;;;5044477;28;20052;-82
2023/08/06 13:17:47;;;;;;;0.47;0.20;;;;;;;;;;5045979;28;20049;-80
2023/08/06 13:20:14;;;;;;;0.25;0.20;;;;;;;;;;5050833;28;20109;-82
2023/08/06 13:22:40;;;;;;;0.65;0.20;;;;;;;;;;5048622;28;20053;-80
2023/08/06 13:25:07;;;;;;;0.75;0.30;;;;;;;;;;5044564;28;20543;-81
2023/08/06 13:27:34;;;;;;;0.45;0.30;;;;;;;;;;5045128;28;20059;-81
2023/08/06 13:30:01;;;;;;;0.82;0.30;;;;;;;;;;5045772;28;20045;-81
2023/08/06 13:32:29;;;;;;;0.63;0.20;;;;;;;;;;5052518;28;20120;-81
2023/08/06 13:34:56;;;;;;;0.32;0.30;;;;;;;;;;5054896;28;20056;-82
2023/08/06 13:37:22;;;;;;;1.10;0.40;;;;;;;;;;5051837;28;20065;-80
2023/08/06 13:39:49;;;;;;;0.50;0.30;;;;;;;;;;5051757;28;20079;-78
2023/08/06 13:42:15;;;;;;;0.30;0.20;;;;;;;;;;5052491;28;20052;-80
2023/08/06 13:44:42;;;;;;;0.30;0.20;;;;;;;;;;5052512;28;20049;-81
2023/08/06 13:47:09;;;;;;;0.90;0.30;;;;;;;;;;5054642;28;20073;-81
2023/08/06 13:49:36;;;;;;;0.43;0.20;;;;;;;;;;5055154;28;20041;-79
2023/08/06 13:52:03;;;;;;;0.20;0.20;;;;;;;;;;5054288;28;20088;-81
2023/08/06 13:54:30;;;;;;;1.02;0.30;;;;;;;;;;5054943;28;20041;-80
2023/08/06 13:56:56;;;;;;;0.40;0.20;;;;;;;;;;5053875;28;20053;-81
2023/08/06 13:59:24;;;;;;;0.52;0.30;;;;;;;;;;5055113;28;20075;-79
2023/08/06 14:01:53;;;;;;;0.93;0.30;;;;;;;;;;5054153;28;20041;-82
2023/08/06 14:04:21;;;;;;;0.65;0.40;;;;;;;;;;5053380;28;20049;-82
2023/08/06 14:06:49;;;;;;;0.75;0.40;;;;;;;;;;5046019;28;20056;-82
2023/08/06 14:09:18;;;;;;;1.42;0.40;;;;;;;;;;5045424;28;20041;-82
2023/08/06 14:11:44;;;;;;;0.30;0.30;;;;;;;;;;5046369;28;20049;-81
2023/08/06 14:14:11;;;;;;;0.85;0.40;;;;;;;;;;5049635;28;20056;-80
2023/08/06 14:16:38;;;;;;;0.50;0.40;;;;;;;;;;5047134;28;20042;-82
2023/08/06 14:19:05;;;;;;;0.68;0.60;;;;;;;;;;5044912;28;20500;-82
2023/08/06 14:21:31;;;;;;;0.93;0.30;;;;;;;;;;5044370;28;20055;-82
2023/08/06 14:23:59;;;;;;;0.70;0.50;;;;;;;;;;5044193;28;20069;-82
2023/08/06 14:26:26;;;;;;;0.40;0.40;;;;;;;;;;5043443;28;20060;-82
2023/08/06 14:28:54;;;;;;;0.90;0.40;;;;;;;;;;5044282;28;20041;-81
2023/08/06 14:31:20;;;;;;;0.40;0.30;;;;;;;;;;5044857;28;20072;-82
2023/08/06 14:33:47;;;;;;;0.93;0.50;;;;;;;;;;5044247;28;20113;-82
2023/08/06 14:36:14;;;;;;;0.85;0.40;;;;;;;;;;5044294;28;20105;-82
2023/08/06 14:38:40;;;;;;;0.35;0.32;;;;;;;;;;5043606;28;20046;-81
2023/08/06 14:41:08;;;;;;;0.90;0.45;;;;;;;;;;5042857;28;20069;-82
2023/08/06 14:43:35;;;;;;;0.90;0.30;;;;;;;;;;5043629;28;20081;-81
2023/08/06 14:46:01;;;;;;;0.77;0.40;;;;;;;;;;5044086;28;20050;-82